createdAt,value
2019-01-19T00:01:49.053Z,99147.01
2019-01-19T00:04:43.910Z,99142.91
2019-01-19T00:07:36.936Z,99138.05
2019-01-19T00:10:45.774Z,99132.56
2019-01-19T00:13:54.010Z,99132.16
2019-01-19T00:16:46.992Z,99128.06
2019-01-19T00:19:51.699Z,99123.04
2019-01-19T00:22:27.251Z,99120.69
2019-01-19T00:25:39.123Z,99113.95
2019-01-19T00:28:15.683Z,99118.54
2019-01-19T00:30:58.527Z,99116.79
2019-01-19T00:33:51.866Z,99121.91
2019-01-19T00:36:51.424Z,99117.31
2019-01-19T00:39:56.450Z,99109.59
2019-01-19T00:42:31.654Z,99113.66
2019-01-19T00:45:35.092Z,99105.96
2019-01-19T00:48:21.674Z,99112.73
2019-01-19T00:51:44.579Z,99100.64
2019-01-19T00:54:36.390Z,99115.98
2019-01-19T00:57:42.519Z,99107.70
2019-01-19T01:00:16.815Z,99098.05
2019-01-19T01:03:34.811Z,99099.83
2019-01-19T01:06:22.670Z,99104.22
2019-01-19T01:09:37.847Z,99101.54
2019-01-19T01:12:58.503Z,99102.02
2019-01-19T01:15:46.516Z,99103.55
2019-01-19T01:18:45.925Z,99103.92
2019-01-19T01:21:35.468Z,99108.18
2019-01-19T01:24:08.640Z,99098.36
2019-01-19T01:26:53.637Z,99094.47
2019-01-19T01:30:02.506Z,99101.37
2019-01-19T01:33:02.581Z,99089.67
2019-01-19T01:36:29.845Z,99100.15
2019-01-19T01:39:24.082Z,99089.69
2019-01-19T01:42:37.827Z,99089.64
2019-01-19T01:45:43.773Z,99091.59
2019-01-19T01:48:53.535Z,99087.22
2019-01-19T01:51:48.451Z,99093.54
2019-01-19T01:54:45.346Z,99086.28
2019-01-19T01:57:29.650Z,99087.09
2019-01-19T02:00:10.031Z,99083.69
2019-01-19T02:03:00.362Z,99083.16
2019-01-19T02:06:09.362Z,99083.31
2019-01-19T02:09:05.694Z,99082.41
2019-01-19T02:12:05.770Z,99097.48
2019-01-19T02:15:01.539Z,99134.81
2019-01-19T02:17:58.424Z,99067.99
2019-01-19T02:20:54.930Z,99067.23
2019-01-19T02:23:30.425Z,99067.16
2019-01-19T02:26:37.679Z,99056.63
2019-01-19T02:29:44.868Z,99055.81
2019-01-19T02:33:06.862Z,99056.23
2019-01-19T02:35:55.160Z,99053.02
2019-01-19T02:39:28.390Z,99061.55
2019-01-19T02:42:35.327Z,99059.59
2019-01-19T02:45:27.382Z,99060.33
2019-01-19T02:48:42.426Z,99050.25
2019-01-19T02:51:37.866Z,99056.41
2019-01-19T02:54:43.462Z,99057.80
2019-01-19T02:57:51.304Z,99045.20
2019-01-19T03:00:51.979Z,99031.70
2019-01-19T03:03:55.033Z,99022.89
2019-01-19T03:06:44.716Z,99024.06
2019-01-19T03:09:26.398Z,99027.71
2019-01-19T03:12:44.440Z,99023.86
2019-01-19T03:15:55.294Z,99022.37
2019-01-19T03:19:19.206Z,99022.48
2019-01-19T03:22:30.266Z,99019.44
2019-01-19T03:25:32.441Z,99024.03
2019-01-19T03:28:17.833Z,99022.73
2019-01-19T03:31:24.082Z,99021.27
2019-01-19T03:34:31.712Z,99021.07
2019-01-19T03:37:32.004Z,99018.64
2019-01-19T03:40:41.151Z,99006.56
2019-01-19T03:43:47.121Z,99014.73
2019-01-19T03:46:53.185Z,99007.67
2019-01-19T03:50:05.974Z,99026.73
2019-01-19T03:53:16.066Z,98995.64
2019-01-19T03:56:31.712Z,98995.41
2019-01-19T03:59:39.244Z,99005.17
2019-01-19T04:02:55.779Z,99000.80
2019-01-19T04:05:39.923Z,98995.66
2019-01-19T04:08:17.683Z,98998.77
2019-01-19T04:11:03.363Z,98995.95
2019-01-19T04:13:55.284Z,98988.63
2019-01-19T04:16:55.552Z,98986.13
2019-01-19T04:20:10.061Z,98984.95
2019-01-19T04:22:46.950Z,99025.33
2019-01-19T04:25:36.416Z,99019.41
2019-01-19T04:28:04.421Z,98984.09
2019-01-19T04:30:31.164Z,98990.72
2019-01-19T04:32:57.853Z,98976.02
2019-01-19T04:35:24.584Z,98986.71
2019-01-19T04:37:51.797Z,98977.44
2019-01-19T04:40:18.525Z,98971.69
2019-01-19T04:42:45.841Z,98974.81
2019-01-19T04:45:12.712Z,98969.39
2019-01-19T04:47:39.955Z,99015.99
2019-01-19T04:50:09.465Z,98971.25
2019-01-19T04:52:37.637Z,98970.80
2019-01-19T04:55:04.404Z,98966.30
2019-01-19T04:57:31.111Z,98960.80
2019-01-19T04:59:57.843Z,98957.83
2019-01-19T05:02:27.019Z,98959.50
2019-01-19T05:04:53.704Z,98955.08
2019-01-19T05:07:20.598Z,98954.84
2019-01-19T05:09:47.787Z,98958.04
2019-01-19T05:12:14.538Z,98951.80
2019-01-19T05:14:41.259Z,98950.09
2019-01-19T05:17:08.014Z,98944.42
2019-01-19T05:19:34.884Z,98945.46
2019-01-19T05:22:01.635Z,98939.58
2019-01-19T05:24:28.701Z,98945.58
2019-01-19T05:26:55.446Z,98940.88
2019-01-19T05:29:22.167Z,98954.00
2019-01-19T05:31:48.909Z,98942.38
2019-01-19T05:34:15.716Z,98951.33
2019-01-19T05:36:45.069Z,98938.17
2019-01-19T05:39:12.409Z,98935.17
2019-01-19T05:41:39.167Z,98933.27
2019-01-19T05:44:06.304Z,98940.77
2019-01-19T05:46:35.977Z,98938.15
2019-01-19T05:49:02.716Z,98945.94
2019-01-19T05:51:29.456Z,98942.19
2019-01-19T05:53:56.276Z,98940.77
2019-01-19T05:56:25.784Z,98948.23
2019-01-19T05:58:52.517Z,98941.95
2019-01-19T06:01:19.747Z,98954.00
2019-01-19T06:03:46.470Z,98940.91
2019-01-19T06:06:13.173Z,98942.94
2019-01-19T06:08:40.387Z,98930.65
2019-01-19T06:11:07.112Z,98934.55
2019-01-19T06:13:33.836Z,98944.25
2019-01-19T06:16:00.579Z,98944.25
2019-01-19T06:18:28.999Z,98944.17
2019-01-19T06:20:55.764Z,98935.49
2019-01-19T06:23:22.531Z,98949.96
2019-01-19T06:25:49.390Z,98931.97
2019-01-19T06:28:16.122Z,98936.13
2019-01-19T06:30:42.864Z,98933.33
2019-01-19T06:33:09.583Z,98937.14
2019-01-19T06:35:38.202Z,98938.00
2019-01-19T06:38:05.318Z,98943.56
2019-01-19T06:40:32.032Z,98944.70
2019-01-19T06:42:58.907Z,98950.78
2019-01-19T06:45:25.799Z,98947.91
2019-01-19T06:47:54.462Z,98947.02
2019-01-19T06:50:21.182Z,98951.95
2019-01-19T06:52:48.213Z,98951.19
2019-01-19T06:55:17.668Z,98953.30
2019-01-19T06:57:44.491Z,98946.52
2019-01-19T07:00:13.494Z,98956.30
2019-01-19T07:02:40.363Z,98952.94
2019-01-19T07:05:07.115Z,98954.35
2019-01-19T07:07:33.845Z,98956.13
2019-01-19T07:10:00.674Z,98959.37
2019-01-19T07:12:27.413Z,98956.78
2019-01-19T07:14:54.242Z,98954.72
2019-01-19T07:17:21.041Z,98961.08
2019-01-19T07:19:48.157Z,98957.35
2019-01-19T07:22:14.970Z,98956.45
2019-01-19T07:24:41.780Z,98957.23
2019-01-19T07:27:08.532Z,98957.67
2019-01-19T07:29:35.604Z,98960.55
2019-01-19T07:32:02.475Z,98960.72
2019-01-19T07:34:32.047Z,98985.72
2019-01-19T07:36:58.790Z,98959.87
2019-01-19T07:39:25.637Z,98959.22
2019-01-19T07:41:52.578Z,98969.83
2019-01-19T07:44:19.525Z,98967.97
2019-01-19T07:46:46.769Z,99004.81
2019-01-19T07:49:13.630Z,99005.22
2019-01-19T07:51:43.024Z,98968.95
2019-01-19T07:54:09.873Z,99024.27
2019-01-19T07:56:36.990Z,98977.77
2019-01-19T07:59:03.712Z,98970.72
2019-01-19T08:01:30.603Z,98970.40
2019-01-19T08:03:57.310Z,98966.59
2019-01-19T08:06:24.044Z,98967.59
2019-01-19T08:08:50.819Z,98966.91
2019-01-19T08:11:17.551Z,98969.25
2019-01-19T08:13:44.290Z,99005.30
2019-01-19T08:16:11.042Z,98964.42
2019-01-19T08:18:37.858Z,98968.11
2019-01-19T08:21:04.552Z,98973.19
2019-01-19T08:23:31.330Z,98971.28
2019-01-19T08:25:58.066Z,98974.08
2019-01-19T08:28:24.829Z,98974.48
2019-01-19T08:30:51.558Z,98987.57
2019-01-19T08:33:18.388Z,98973.94
2019-01-19T08:35:45.879Z,98970.36
2019-01-19T08:38:14.363Z,98968.62
2019-01-19T08:40:41.453Z,98967.81
2019-01-19T08:43:16.876Z,99032.79
2019-01-19T08:45:43.872Z,98967.08
2019-01-19T08:48:11.077Z,98961.69
2019-01-19T08:50:37.914Z,98963.25
2019-01-19T08:53:04.963Z,98958.86
2019-01-19T08:55:33.387Z,98945.52
2019-01-19T08:58:00.217Z,98992.61
2019-01-19T09:00:27.008Z,98951.48
2019-01-19T09:02:58.142Z,98944.66
2019-01-19T09:05:25.013Z,98952.16
2019-01-19T09:07:51.786Z,98952.69
2019-01-19T09:10:18.708Z,98952.98
2019-01-19T09:12:45.482Z,98952.77
2019-01-19T09:15:13.313Z,98942.37
2019-01-19T09:17:40.103Z,98943.28
2019-01-19T09:20:08.198Z,98943.38
2019-01-19T09:22:35.251Z,98946.47
2019-01-19T09:25:02.049Z,98943.36
2019-01-19T09:27:28.876Z,98945.55
2019-01-19T09:29:56.018Z,98944.53
2019-01-19T09:32:23.345Z,98940.83
2019-01-19T09:34:50.103Z,98940.02
2019-01-19T09:37:16.875Z,98947.92
2019-01-19T09:39:43.619Z,98939.94
2019-01-19T09:42:10.363Z,98939.11
2019-01-19T09:44:37.229Z,98940.91
2019-01-19T09:47:03.985Z,98943.75
2019-01-19T09:49:30.783Z,98943.52
2019-01-19T09:51:57.653Z,98941.32
2019-01-19T09:54:24.944Z,98939.17
2019-01-19T09:56:52.081Z,99000.11
2019-01-19T09:59:19.172Z,98965.27
2019-01-19T10:01:46.616Z,98941.59
2019-01-19T10:04:19.399Z,98944.08
2019-01-19T10:06:48.234Z,98929.66
2019-01-19T10:09:15.757Z,98932.67
2019-01-19T10:11:42.709Z,98923.28
2019-01-19T10:14:10.933Z,98926.60
2019-01-19T10:16:37.822Z,98917.33
2019-01-19T10:19:04.837Z,98905.22
2019-01-19T10:21:32.430Z,98903.23
2019-01-19T10:23:59.185Z,98902.43
2019-01-19T10:26:27.049Z,98896.02
2019-01-19T10:28:56.497Z,98897.80
2019-01-19T10:31:23.455Z,98903.07
2019-01-19T10:33:50.270Z,98890.30
2019-01-19T10:36:19.245Z,98890.21
2019-01-19T10:38:46.905Z,98881.09
2019-01-19T10:41:13.738Z,98889.00
2019-01-19T10:43:40.930Z,98882.25
2019-01-19T10:46:08.296Z,98885.39
2019-01-19T10:48:35.307Z,98875.95
2019-01-19T10:51:02.446Z,98920.06
2019-01-19T10:53:29.485Z,98862.34
2019-01-19T10:55:56.577Z,98860.01
2019-01-19T10:58:23.488Z,98899.11
2019-01-19T11:00:50.422Z,98858.59
2019-01-19T11:03:17.557Z,98854.63
2019-01-19T11:05:44.383Z,98872.83
2019-01-19T11:08:12.116Z,98847.99
2019-01-19T11:10:39.008Z,98844.92
2019-01-19T11:13:05.854Z,98837.94
2019-01-19T11:15:35.211Z,98844.05
2019-01-19T11:18:02.065Z,98831.48
2019-01-19T11:20:30.874Z,98836.64
2019-01-19T11:22:58.908Z,98835.07
2019-01-19T11:25:26.240Z,98823.60
2019-01-19T11:27:53.284Z,98828.09
2019-01-19T11:30:22.185Z,98821.88
2019-01-19T11:32:49.100Z,98814.63
2019-01-19T11:35:16.562Z,98814.84
2019-01-19T11:37:43.446Z,98805.48
2019-01-19T11:40:13.245Z,98812.28
2019-01-19T11:42:40.048Z,98797.28
2019-01-19T11:45:09.274Z,98801.27
2019-01-19T11:47:36.287Z,98813.39
2019-01-19T11:50:03.888Z,98797.28
2019-01-19T11:52:31.199Z,98792.63
2019-01-19T11:54:59.899Z,98791.09
2019-01-19T11:57:26.666Z,98783.06
2019-01-19T11:59:53.637Z,98780.80
2019-01-19T12:02:20.547Z,98778.76
2019-01-19T12:04:47.531Z,98767.16
2019-01-19T12:07:15.497Z,98765.83
2019-01-19T12:09:42.236Z,98757.33
2019-01-19T12:12:10.111Z,98752.55
2019-01-19T12:14:37.135Z,98792.22
2019-01-19T12:17:05.306Z,98751.00
2019-01-19T12:19:34.904Z,98744.13
2019-01-19T12:22:01.864Z,98749.21
2019-01-19T12:24:29.735Z,98747.75
2019-01-19T12:26:56.719Z,98733.39
2019-01-19T12:29:23.594Z,98737.78
2019-01-19T12:31:50.484Z,98729.95
2019-01-19T12:34:17.729Z,98730.28
2019-01-19T12:36:44.658Z,98726.98
2019-01-19T12:39:11.445Z,98725.12
2019-01-19T12:41:38.304Z,98725.00
2019-01-19T12:44:06.682Z,98723.84
2019-01-19T12:46:33.461Z,98725.51
2019-01-19T12:49:00.358Z,98718.38
2019-01-19T12:51:29.772Z,98718.38
2019-01-19T12:53:56.566Z,98709.78
2019-01-19T12:56:23.477Z,98709.78
2019-01-19T12:58:50.538Z,98705.39
2019-01-19T13:01:17.440Z,98705.39
2019-01-19T13:03:44.230Z,98701.68
2019-01-19T13:06:50.982Z,98702.73
2019-01-19T13:09:21.055Z,98702.42
2019-01-19T13:12:11.944Z,98696.16
2019-01-19T13:14:56.314Z,98696.16
2019-01-19T13:17:56.407Z,98694.80
2019-01-19T13:20:41.884Z,98685.48
2019-01-19T13:23:34.288Z,98685.48
2019-01-19T13:27:01.911Z,98685.19
2019-01-19T13:30:03.296Z,98687.97
2019-01-19T13:32:59.162Z,98671.72
2019-01-19T13:36:04.839Z,98671.72
2019-01-19T13:39:05.960Z,98683.53
2019-01-19T13:42:09.693Z,98676.81
2019-01-19T13:45:13.368Z,98676.81
2019-01-19T13:48:17.987Z,98666.73
2019-01-19T13:51:07.178Z,98666.73
2019-01-19T13:54:04.342Z,98677.81
2019-01-19T13:57:14.867Z,98674.55
2019-01-19T14:00:39.730Z,98674.55
2019-01-19T14:03:59.901Z,98673.98
2019-01-19T14:07:08.101Z,98676.45
2019-01-19T14:10:16.022Z,98673.41
2019-01-19T14:13:22.585Z,98680.54
2019-01-19T14:16:32.670Z,98678.96
2019-01-19T14:19:50.438Z,98676.72
2019-01-19T14:23:01.623Z,98676.72
2019-01-19T14:26:01.229Z,98675.80
2019-01-19T14:28:56.645Z,98681.39
2019-01-19T14:31:56.490Z,98680.75
2019-01-19T14:34:53.236Z,98672.47
2019-01-19T14:37:58.762Z,98672.79
2019-01-19T14:41:01.339Z,98685.02
2019-01-19T14:44:13.199Z,98719.30
2019-01-19T14:47:20.286Z,98671.98
2019-01-19T14:50:18.526Z,98666.03
2019-01-19T14:53:27.458Z,98669.00
2019-01-19T14:56:27.510Z,98667.19
2019-01-19T14:59:54.854Z,98659.05
2019-01-19T15:02:44.918Z,98655.02
2019-01-19T15:05:47.500Z,98659.41
2019-01-19T15:08:42.110Z,98647.13
2019-01-19T15:12:00.097Z,98641.58
2019-01-19T15:15:03.428Z,98658.53
2019-01-19T15:18:17.104Z,98662.44
2019-01-19T15:21:25.634Z,98650.13
2019-01-19T15:24:39.700Z,98644.34
2019-01-19T15:27:50.806Z,98650.36
2019-01-19T15:31:03.101Z,98634.48
2019-01-19T15:33:56.275Z,98647.53
2019-01-19T15:36:48.199Z,98643.62
2019-01-19T15:40:09.417Z,98643.47
2019-01-19T15:43:12.213Z,98638.83
2019-01-19T15:46:35.875Z,98639.02
2019-01-19T15:49:36.483Z,98645.66
2019-01-19T15:52:36.807Z,98655.44
2019-01-19T15:56:03.495Z,98639.02
2019-01-19T15:59:02.609Z,98687.79
2019-01-19T16:02:19.508Z,98637.55
2019-01-19T16:04:54.332Z,98634.22
2019-01-19T16:07:51.762Z,98638.13
2019-01-19T16:10:43.510Z,98637.28
2019-01-19T16:13:44.775Z,98633.34
2019-01-19T16:16:23.267Z,98659.34
2019-01-19T16:19:26.033Z,98638.73
2019-01-19T16:22:40.479Z,98640.58
2019-01-19T16:25:40.759Z,98640.89
2019-01-19T16:29:17.146Z,98643.13
2019-01-19T16:32:18.718Z,98635.39
2019-01-19T16:35:20.909Z,98633.84
2019-01-19T16:38:09.441Z,98639.63
2019-01-19T16:41:03.441Z,98646.95
2019-01-19T16:43:54.479Z,98637.73
2019-01-19T16:47:05.303Z,98642.65
2019-01-19T16:50:25.883Z,98638.47
2019-01-19T16:53:11.946Z,98628.97
2019-01-19T16:56:01.877Z,98689.30
2019-01-19T16:58:55.815Z,98636.59
2019-01-19T17:01:55.753Z,98627.47
2019-01-19T17:04:58.020Z,98624.34
2019-01-19T17:08:01.355Z,98615.30
2019-01-19T17:11:02.063Z,98618.11
2019-01-19T17:13:52.237Z,98619.53
2019-01-19T17:16:54.135Z,98615.70
2019-01-19T17:19:58.541Z,98619.63
2019-01-19T17:22:47.525Z,98622.42
2019-01-19T17:25:39.349Z,98617.72
2019-01-19T17:29:07.087Z,98617.72
2019-01-19T17:32:08.224Z,98621.48
2019-01-19T17:35:16.025Z,98619.45
2019-01-19T17:37:58.143Z,98623.28
2019-01-19T17:41:05.302Z,98621.44
2019-01-19T17:43:38.912Z,98618.53
2019-01-19T17:46:44.031Z,98624.86
2019-01-19T17:49:43.176Z,98620.22
2019-01-19T17:52:35.546Z,98626.16
2019-01-19T17:55:45.368Z,98621.30
2019-01-19T17:59:01.329Z,98624.81
2019-01-19T18:02:00.449Z,98634.68
2019-01-19T18:04:57.282Z,98661.50
2019-01-19T18:08:01.136Z,98628.17
2019-01-19T18:10:53.566Z,98660.50
2019-01-19T18:14:04.137Z,98631.58
2019-01-19T18:17:27.918Z,98626.51
2019-01-19T18:20:21.131Z,98625.88
2019-01-19T18:23:25.864Z,98644.17
2019-01-19T18:26:25.654Z,98623.41
2019-01-19T18:29:07.688Z,98630.45
2019-01-19T18:31:54.254Z,98605.70
2019-01-19T18:34:56.609Z,98629.61
2019-01-19T18:38:07.194Z,98622.61
2019-01-19T18:41:01.677Z,98610.95
2019-01-19T18:44:19.506Z,98622.81
2019-01-19T18:47:20.106Z,98628.40
2019-01-19T18:50:27.352Z,98616.61
2019-01-19T18:53:27.127Z,98618.77
2019-01-19T18:56:21.570Z,98624.98
2019-01-19T18:59:16.942Z,98623.16
2019-01-19T19:02:43.780Z,98623.38
2019-01-19T19:05:46.751Z,98618.38
2019-01-19T19:08:51.714Z,98614.91
2019-01-19T19:12:11.985Z,98612.34
2019-01-19T19:15:04.599Z,98651.33
2019-01-19T19:17:58.177Z,98605.78
2019-01-19T19:21:08.973Z,98608.87
2019-01-19T19:24:32.672Z,98610.56
2019-01-19T19:27:32.050Z,98611.23
2019-01-19T19:30:27.952Z,98610.75
2019-01-19T19:33:22.274Z,98610.77
2019-01-19T19:36:26.039Z,98607.99
2019-01-19T19:39:37.215Z,98609.02
2019-01-19T19:42:45.264Z,98605.12
2019-01-19T19:45:57.033Z,98607.48
2019-01-19T19:49:07.257Z,98596.61
2019-01-19T19:52:00.880Z,98601.70
2019-01-19T19:54:28.762Z,98608.32
2019-01-19T19:56:55.765Z,98618.00
2019-01-19T19:59:22.501Z,98605.00
2019-01-19T20:01:49.368Z,98605.22
2019-01-19T20:04:16.136Z,98599.91
2019-01-19T20:06:43.121Z,98606.28
2019-01-19T20:09:09.851Z,98601.30
2019-01-19T20:11:36.845Z,98596.80
2019-01-19T20:14:03.641Z,98605.10
2019-01-19T20:16:31.041Z,98602.72
2019-01-19T20:18:57.786Z,98615.29
2019-01-19T20:21:24.617Z,98610.18
2019-01-19T20:23:51.622Z,98599.10
2019-01-19T20:26:18.394Z,98606.52
2019-01-19T20:28:45.149Z,98604.75
2019-01-19T20:31:11.920Z,98614.64
2019-01-19T20:33:38.707Z,98608.34
2019-01-19T20:36:05.609Z,98609.47
2019-01-19T20:38:32.400Z,98603.66
2019-01-19T20:40:59.128Z,98602.88
2019-01-19T20:43:26.050Z,98605.97
2019-01-19T20:45:53.456Z,98610.08
2019-01-19T20:48:20.327Z,98606.09
2019-01-19T20:50:47.318Z,98608.27
2019-01-19T20:53:14.071Z,98612.48
2019-01-19T20:55:41.027Z,98609.98
2019-01-19T20:58:08.158Z,98607.98
2019-01-19T21:00:35.328Z,98613.17
2019-01-19T21:03:02.172Z,98598.09
2019-01-19T21:05:29.381Z,98600.80
2019-01-19T21:07:56.215Z,98603.49
2019-01-19T21:10:23.043Z,98604.20
2019-01-19T21:12:50.794Z,98605.98
2019-01-19T21:15:17.530Z,98612.26
2019-01-19T21:17:44.314Z,98607.59
2019-01-19T21:20:11.793Z,98603.39
2019-01-19T21:22:38.599Z,98611.56
2019-01-19T21:25:06.435Z,98620.46
2019-01-19T21:27:33.254Z,98614.27
2019-01-19T21:29:59.981Z,98611.87
2019-01-19T21:32:26.710Z,98608.57
2019-01-19T21:34:53.491Z,98610.66
2019-01-19T21:37:20.318Z,98612.27
2019-01-19T21:39:47.144Z,98620.63
2019-01-19T21:42:13.917Z,98604.66
2019-01-19T21:44:41.062Z,98602.06
2019-01-19T21:47:07.840Z,98599.59
2019-01-19T21:49:34.728Z,98602.98
2019-01-19T21:52:01.579Z,98600.66
2019-01-19T21:54:28.430Z,98603.95
2019-01-19T21:56:55.313Z,98597.67
2019-01-19T21:59:22.110Z,98597.58
2019-01-19T22:01:48.925Z,98606.43
2019-01-19T22:04:15.681Z,98600.25
2019-01-19T22:06:42.410Z,98595.27
2019-01-19T22:09:09.211Z,98598.34
2019-01-19T22:11:36.130Z,98595.15
2019-01-19T22:14:04.321Z,98590.59
2019-01-19T22:16:32.359Z,98590.37
2019-01-19T22:18:59.209Z,98590.48
2019-01-19T22:21:34.514Z,98595.04
2019-01-19T22:24:01.274Z,98593.37
2019-01-19T22:26:28.447Z,98601.80
2019-01-19T22:28:55.305Z,98589.80
2019-01-19T22:31:24.439Z,98591.05
2019-01-19T22:33:51.404Z,98588.46
2019-01-19T22:36:19.263Z,98596.80
2019-01-19T22:38:46.137Z,98596.69
2019-01-19T22:41:13.075Z,98599.05
2019-01-19T22:43:39.802Z,98597.06
2019-01-19T22:46:07.057Z,98591.67
2019-01-19T22:48:33.789Z,98600.58
2019-01-19T22:51:00.525Z,98598.27
2019-01-19T22:53:27.290Z,98597.44
2019-01-19T22:55:54.330Z,98593.67
2019-01-19T22:58:21.475Z,98592.03
2019-01-19T23:01:01.739Z,98596.58
2019-01-19T23:03:30.952Z,98596.52
2019-01-19T23:05:57.663Z,98602.81
2019-01-19T23:08:24.428Z,98597.41
2019-01-19T23:10:51.378Z,98599.07
2019-01-19T23:13:18.283Z,98607.52
2019-01-19T23:15:45.139Z,98597.45
2019-01-19T23:18:11.890Z,98597.69
2019-01-19T23:20:38.910Z,98592.63
2019-01-19T23:23:05.686Z,98595.70
2019-01-19T23:25:32.496Z,98588.47
2019-01-19T23:27:59.277Z,98593.55
2019-01-19T23:30:26.291Z,98596.34
2019-01-19T23:32:53.052Z,98595.62
2019-01-19T23:35:19.828Z,98600.08
2019-01-19T23:37:46.813Z,98597.03
2019-01-19T23:40:13.869Z,98606.24
2019-01-19T23:42:47.107Z,98614.34
2019-01-19T23:45:10.562Z,98592.89
2019-01-19T23:47:37.351Z,98599.52
2019-01-19T23:50:04.297Z,98593.00
2019-01-19T23:52:31.054Z,98597.05
2019-01-19T23:54:57.945Z,98608.01
2019-01-19T23:57:24.763Z,98590.25
2019-01-19T23:59:51.885Z,98592.00
